createdAt,value
2018-10-07T00:02:02.326Z,91.86
2018-10-07T00:04:32.153Z,92.13
2018-10-07T00:07:01.726Z,92.44
2018-10-07T00:09:31.337Z,92.07
2018-10-07T00:12:00.803Z,92.13
2018-10-07T00:14:30.318Z,92.06
2018-10-07T00:16:59.763Z,91.91
2018-10-07T00:19:29.461Z,92.38
2018-10-07T00:21:59.101Z,91.84
2018-10-07T00:24:28.856Z,92.27
2018-10-07T00:26:58.313Z,91.53
2018-10-07T00:29:27.957Z,91.84
2018-10-07T00:32:02.458Z,91.92
2018-10-07T00:34:32.385Z,91.33
2018-10-07T00:37:01.861Z,92.05
2018-10-07T00:39:31.458Z,91.98
2018-10-07T00:42:00.865Z,92.66
2018-10-07T00:44:30.472Z,92.21
2018-10-07T00:46:59.901Z,91.88
2018-10-07T00:49:29.676Z,92.03
2018-10-07T00:51:59.184Z,92.33
2018-10-07T00:54:28.974Z,92.79
2018-10-07T00:56:58.353Z,92.27
2018-10-07T00:59:27.915Z,92.75
2018-10-07T01:01:57.499Z,92.79
2018-10-07T01:04:26.953Z,92.31
2018-10-07T01:06:56.403Z,92.04
2018-10-07T01:09:26.159Z,91.76
2018-10-07T01:11:55.903Z,92.04
2018-10-07T01:14:25.521Z,92.65
2018-10-07T01:16:55.203Z,92.48
2018-10-07T01:19:24.854Z,92.24
2018-10-07T01:21:54.476Z,92.25
2018-10-07T01:24:24.135Z,92.36
2018-10-07T01:26:53.613Z,92.46
2018-10-07T01:29:23.275Z,91.83
2018-10-07T01:31:52.675Z,92.09
2018-10-07T01:34:22.805Z,92.15
2018-10-07T01:36:52.886Z,91.71
2018-10-07T01:39:22.613Z,91.88
2018-10-07T01:41:52.420Z,91.96
2018-10-07T01:44:22.133Z,92.28
2018-10-07T01:46:51.880Z,92.37
2018-10-07T01:49:21.973Z,92.18
2018-10-07T01:51:51.915Z,91.88
2018-10-07T01:54:21.515Z,92.06
2018-10-07T01:56:51.294Z,92.11
2018-10-07T01:59:21.067Z,92.07
2018-10-07T02:01:50.626Z,92.20
2018-10-07T02:04:20.315Z,92.26
2018-10-07T02:06:49.745Z,92.30
2018-10-07T02:09:19.404Z,91.71
2018-10-07T02:11:48.881Z,92.10
2018-10-07T02:14:18.487Z,92.29
2018-10-07T02:16:48.084Z,92.16
2018-10-07T02:19:17.854Z,92.17
2018-10-07T02:21:47.560Z,92.28
2018-10-07T02:24:17.080Z,92.35
2018-10-07T02:26:46.580Z,92.68
2018-10-07T02:29:16.221Z,92.88
2018-10-07T02:31:45.655Z,92.68
2018-10-07T02:34:15.841Z,92.41
2018-10-07T02:36:45.554Z,92.50
2018-10-07T02:39:15.258Z,92.51
2018-10-07T02:41:45.022Z,92.35
2018-10-07T02:44:14.780Z,92.40
2018-10-07T02:46:44.276Z,92.46
2018-10-07T02:49:13.838Z,92.47
2018-10-07T02:51:43.599Z,92.17
2018-10-07T02:54:13.297Z,92.02
2018-10-07T02:56:42.957Z,92.49
2018-10-07T02:59:13.022Z,92.12
2018-10-07T03:01:42.454Z,92.40
2018-10-07T03:04:11.960Z,92.24
2018-10-07T03:06:41.524Z,92.02
2018-10-07T03:09:12.094Z,92.01
2018-10-07T03:11:41.585Z,91.85
2018-10-07T03:14:11.298Z,91.89
2018-10-07T03:16:40.798Z,92.06
2018-10-07T03:19:10.454Z,92.06
2018-10-07T03:21:39.938Z,92.22
2018-10-07T03:24:09.614Z,92.12
2018-10-07T03:26:39.080Z,91.90
2018-10-07T03:29:09.185Z,91.76
2018-10-07T03:31:38.637Z,91.67
2018-10-07T03:34:08.398Z,91.88
2018-10-07T03:36:37.917Z,91.82
2018-10-07T03:39:09.357Z,91.74
2018-10-07T03:41:39.246Z,91.84
2018-10-07T03:44:08.929Z,92.22
2018-10-07T03:46:38.449Z,92.13
2018-10-07T03:49:08.025Z,92.44
2018-10-07T03:51:37.684Z,92.51
2018-10-07T03:54:07.271Z,92.25
2018-10-07T03:56:36.881Z,92.41
2018-10-07T03:59:07.430Z,92.21
2018-10-07T04:01:37.204Z,92.68
2018-10-07T04:04:07.159Z,92.59
2018-10-07T04:06:36.856Z,92.75
2018-10-07T04:09:12.107Z,92.67
2018-10-07T04:11:42.966Z,92.85
2018-10-07T04:14:14.319Z,92.80
2018-10-07T04:16:43.746Z,92.77
2018-10-07T04:19:13.847Z,92.77
2018-10-07T04:21:48.537Z,93.05
2018-10-07T04:24:18.161Z,92.45
2018-10-07T04:26:47.762Z,92.36
2018-10-07T04:29:18.962Z,92.44
2018-10-07T04:31:48.620Z,92.72
2018-10-07T04:34:19.599Z,92.88
2018-10-07T04:36:49.047Z,93.14
2018-10-07T04:39:18.876Z,92.96
2018-10-07T04:41:49.004Z,93.07
2018-10-07T04:44:19.979Z,93.27
2018-10-07T04:46:49.686Z,93.10
2018-10-07T04:49:22.165Z,93.14
2018-10-07T04:51:51.752Z,93.10
2018-10-07T04:54:22.456Z,92.59
2018-10-07T04:56:51.984Z,92.62
2018-10-07T04:59:21.478Z,92.50
2018-10-07T05:01:50.917Z,92.65
2018-10-07T05:04:20.549Z,92.69
2018-10-07T05:06:50.349Z,92.47
2018-10-07T05:09:20.390Z,92.61
2018-10-07T05:11:50.170Z,92.49
2018-10-07T05:14:25.813Z,92.61
2018-10-07T05:19:38.860Z,92.70
2018-10-07T05:22:15.066Z,92.54
2018-10-07T05:24:44.639Z,92.83
2018-10-07T05:40:08.299Z,92.87
2018-10-07T05:42:38.153Z,92.61
2018-10-07T05:45:07.839Z,92.59
2018-10-07T05:47:57.100Z,92.76
2018-10-07T05:50:28.600Z,92.43
2018-10-07T05:52:58.279Z,92.61
2018-10-07T05:55:52.080Z,92.43
2018-10-07T05:58:21.901Z,92.58
2018-10-07T06:00:54.039Z,92.64
2018-10-07T06:03:44.521Z,92.53
2018-10-07T06:06:15.060Z,92.80
2018-10-07T06:08:45.202Z,92.88
2018-10-07T06:11:29.299Z,92.81
2018-10-07T06:13:59.219Z,93.33
2018-10-07T06:16:57.639Z,93.01
2018-10-07T06:19:27.560Z,93.00
2018-10-07T06:21:57.299Z,92.83
2018-10-07T06:24:26.959Z,92.98
2018-10-07T06:27:17.658Z,92.89
2018-10-07T06:29:47.532Z,92.92
2018-10-07T06:32:17.351Z,93.10
2018-10-07T06:34:59.518Z,93.77
2018-10-07T06:37:29.061Z,93.25
2018-10-07T06:39:59.184Z,93.69
2018-10-07T06:58:48.267Z,92.95
2018-10-07T07:01:18.251Z,93.30
2018-10-07T07:03:47.939Z,93.12
2018-10-07T07:06:24.855Z,93.47
2018-10-07T07:08:55.431Z,92.59
2018-10-07T07:14:17.658Z,92.49
2018-10-07T07:16:47.432Z,92.39
2018-10-07T07:19:16.878Z,92.90
2018-10-07T07:21:58.958Z,92.34
2018-10-07T07:24:28.554Z,91.98
2018-10-07T07:27:09.978Z,90.83
2018-10-07T07:29:51.523Z,90.37
2018-10-07T07:32:21.327Z,89.52
2018-10-07T07:34:51.035Z,89.90
2018-10-07T07:37:20.712Z,90.74
2018-10-07T07:39:56.040Z,90.29
2018-10-07T07:42:26.423Z,89.99
2018-10-07T07:47:51.044Z,86.64
2018-10-07T07:50:21.579Z,86.31
2018-10-07T07:52:51.499Z,85.34
2018-10-07T07:55:37.671Z,85.62
2018-10-07T07:58:07.804Z,85.48
2018-10-07T08:00:41.793Z,85.24
2018-10-07T08:03:11.241Z,83.91
2018-10-07T08:05:41.359Z,83.97
2018-10-07T08:08:11.219Z,83.20
2018-10-07T08:10:40.806Z,82.89
2018-10-07T08:13:11.194Z,83.16
2018-10-07T08:15:40.632Z,81.78
2018-10-07T08:18:10.055Z,78.79
2018-10-07T08:20:43.171Z,77.31
2018-10-07T08:26:05.273Z,77.61
2018-10-07T08:31:28.739Z,74.66
2018-10-07T08:36:58.854Z,73.04
2018-10-07T08:39:28.435Z,73.42
2018-10-07T08:41:59.178Z,74.81
2018-10-07T08:44:45.813Z,73.35
2018-10-07T08:47:15.612Z,71.99
2018-10-07T08:52:39.854Z,72.38
2018-10-07T08:58:11.840Z,69.99
2018-10-07T09:27:29.492Z,71.28
2018-10-07T09:30:10.882Z,72.33
2018-10-07T09:32:40.733Z,70.36
2018-10-07T09:35:10.035Z,68.23
2018-10-07T09:37:39.628Z,68.19
2018-10-07T09:40:09.062Z,68.59
2018-10-07T09:42:38.509Z,69.24
2018-10-07T09:45:08.274Z,67.83
2018-10-07T09:47:41.470Z,64.82
2018-10-07T09:50:13.744Z,65.49
2018-10-07T09:52:43.272Z,66.14
2018-10-07T09:55:12.896Z,67.18
2018-10-07T09:57:42.525Z,68.26
2018-10-07T10:00:12.042Z,69.48
2018-10-07T10:02:41.843Z,69.32
2018-10-07T10:05:11.249Z,69.77
2018-10-07T10:07:40.785Z,69.34
2018-10-07T10:10:10.485Z,67.71
2018-10-07T10:12:40.133Z,68.85
2018-10-07T10:15:09.585Z,68.63
2018-10-07T10:17:39.414Z,69.85
2018-10-07T10:20:11.128Z,70.14
2018-10-07T10:23:16.863Z,69.88
2018-10-07T10:28:02.083Z,69.59
2018-10-07T10:30:51.457Z,68.62
2018-10-07T10:33:39.017Z,68.92
2018-10-07T10:36:23.346Z,68.27
2018-10-07T10:39:10.037Z,67.46
2018-10-07T10:41:48.316Z,66.44
2018-10-07T10:44:24.640Z,66.89
2018-10-07T10:48:04.877Z,67.25
2018-10-07T10:50:43.917Z,68.43
2018-10-07T10:53:27.440Z,67.70
2018-10-07T10:56:11.640Z,67.34
2018-10-07T10:58:51.119Z,67.56
2018-10-07T11:01:38.846Z,68.41
2018-10-07T11:04:15.900Z,66.70
2018-10-07T11:07:21.606Z,66.82
2018-10-07T11:10:03.718Z,65.31
2018-10-07T11:13:06.663Z,65.16
2018-10-07T11:15:39.304Z,65.95
2018-10-07T11:18:27.586Z,66.53
2018-10-07T11:22:14.647Z,65.73
2018-10-07T11:27:49.678Z,67.43
2018-10-07T11:30:38.988Z,67.26
2018-10-07T11:33:19.605Z,66.95
2018-10-07T11:39:18.999Z,66.86
2018-10-07T11:57:49.186Z,64.21
2018-10-07T12:00:18.982Z,65.42
2018-10-07T12:05:41.886Z,63.26
2018-10-07T12:08:14.266Z,62.82
2018-10-07T12:10:43.705Z,62.51
2018-10-07T12:16:07.646Z,61.83
2018-10-07T12:18:45.187Z,63.31
2018-10-07T12:21:14.987Z,64.49
2018-10-07T12:23:44.519Z,65.71
2018-10-07T12:29:15.259Z,64.06
2018-10-07T12:31:44.889Z,63.14
2018-10-07T12:34:19.166Z,63.38
2018-10-07T12:36:49.348Z,62.81
2018-10-07T12:39:19.958Z,62.29
2018-10-07T12:41:50.502Z,62.63
2018-10-07T12:44:39.207Z,64.04
2018-10-07T12:47:09.188Z,65.26
2018-10-07T12:49:38.602Z,63.96
2018-10-07T12:52:13.815Z,64.22
2018-10-07T12:54:43.346Z,64.72
2018-10-07T12:57:13.005Z,63.67
2018-10-07T12:59:42.486Z,64.06
2018-10-07T13:02:14.086Z,64.53
2018-10-07T13:04:43.935Z,65.37
2018-10-07T13:10:43.119Z,64.35
2018-10-07T13:16:07.561Z,64.57
2018-10-07T13:21:30.046Z,65.09
2018-10-07T13:26:57.678Z,64.62
2018-10-07T13:29:27.025Z,64.76
2018-10-07T13:32:07.367Z,63.56
2018-10-07T13:34:49.528Z,63.15
2018-10-07T13:37:20.886Z,62.77
2018-10-07T13:42:43.639Z,63.33
2018-10-07T13:48:12.105Z,63.15
2018-10-07T13:50:41.606Z,62.05
2018-10-07T13:53:25.670Z,62.80
2018-10-07T13:55:55.205Z,63.36
2018-10-07T13:58:24.738Z,62.38
2018-10-07T14:00:54.165Z,65.02
2018-10-07T14:03:23.700Z,64.39
2018-10-07T14:05:53.678Z,64.06
2018-10-07T14:08:23.244Z,64.20
2018-10-07T14:10:52.807Z,63.16
2018-10-07T14:13:22.390Z,64.55
2018-10-07T14:15:52.038Z,64.14
2018-10-07T14:18:21.526Z,64.88
2018-10-07T14:20:51.026Z,64.73
2018-10-07T14:23:20.693Z,65.50
2018-10-07T14:25:50.325Z,65.45
2018-10-07T14:28:19.924Z,65.92
2018-10-07T14:30:49.545Z,66.53
2018-10-07T14:33:19.125Z,66.68
2018-10-07T14:35:48.909Z,67.49
2018-10-07T14:38:18.646Z,69.02
2018-10-07T14:40:48.726Z,69.43
2018-10-07T14:43:18.478Z,71.31
2018-10-07T14:45:48.101Z,73.25
2018-10-07T14:48:17.786Z,75.55
2018-10-07T14:50:47.942Z,75.80
2018-10-07T14:53:17.558Z,77.32
2018-10-07T14:55:47.487Z,77.86
2018-10-07T14:58:17.248Z,78.55
2018-10-07T15:00:47.006Z,79.82
2018-10-07T15:03:16.666Z,80.16
2018-10-07T15:05:46.353Z,79.89
2018-10-07T15:08:16.820Z,81.37
2018-10-07T15:10:46.706Z,82.00
2018-10-07T15:13:16.568Z,82.07
2018-10-07T15:15:46.827Z,83.05
2018-10-07T15:18:17.040Z,83.63
2018-10-07T15:20:46.862Z,84.09
2018-10-07T15:23:16.846Z,84.08
2018-10-07T15:25:46.587Z,83.98
2018-10-07T15:28:16.207Z,84.11
2018-10-07T15:30:45.839Z,84.46
2018-10-07T15:33:15.407Z,85.02
2018-10-07T15:35:45.083Z,85.19
2018-10-07T15:38:15.008Z,85.15
2018-10-07T15:40:44.904Z,85.90
2018-10-07T15:43:14.462Z,85.01
2018-10-07T15:45:44.352Z,84.81
2018-10-07T15:48:14.028Z,85.02
2018-10-07T15:50:43.981Z,85.48
2018-10-07T15:53:14.001Z,85.94
2018-10-07T15:55:43.802Z,85.47
2018-10-07T15:58:13.523Z,85.76
2018-10-07T16:00:43.128Z,86.80
2018-10-07T16:03:14.561Z,86.82
2018-10-07T16:05:44.469Z,86.27
2018-10-07T16:08:14.779Z,87.30
2018-10-07T16:10:44.722Z,86.87
2018-10-07T16:13:14.661Z,86.79
2018-10-07T16:15:44.761Z,87.85
2018-10-07T16:18:14.804Z,87.74
2018-10-07T16:20:44.662Z,88.06
2018-10-07T16:23:15.642Z,87.77
2018-10-07T16:25:45.103Z,87.62
2018-10-07T16:28:14.823Z,88.34
2018-10-07T16:30:44.864Z,88.44
2018-10-07T16:33:14.749Z,88.27
2018-10-07T16:35:44.823Z,88.11
2018-10-07T16:38:14.523Z,88.41
2018-10-07T16:40:44.290Z,88.52
2018-10-07T16:43:13.983Z,88.61
2018-10-07T16:45:44.112Z,88.72
2018-10-07T16:48:13.690Z,89.15
2018-10-07T16:50:43.550Z,89.17
2018-10-07T16:53:13.391Z,89.40
2018-10-07T16:55:43.784Z,88.60
2018-10-07T16:58:13.591Z,89.04
2018-10-07T17:00:43.330Z,88.61
2018-10-07T17:03:13.383Z,88.82
2018-10-07T17:05:43.810Z,89.11
2018-10-07T17:08:14.695Z,89.15
2018-10-07T17:10:45.068Z,89.38
2018-10-07T17:13:15.376Z,89.69
2018-10-07T17:15:45.244Z,89.19
2018-10-07T17:18:15.750Z,89.03
2018-10-07T17:20:45.583Z,89.99
2018-10-07T17:23:17.423Z,89.50
2018-10-07T17:25:47.303Z,90.31
2018-10-07T17:28:18.395Z,89.89
2018-10-07T17:30:48.111Z,90.15
2018-10-07T17:33:18.850Z,90.11
2018-10-07T17:35:48.724Z,89.78
2018-10-07T17:38:18.590Z,89.66
2018-10-07T17:40:48.453Z,89.76
2018-10-07T17:43:18.523Z,89.97
2018-10-07T17:45:48.971Z,89.82
2018-10-07T17:48:19.603Z,89.93
2018-10-07T17:50:49.515Z,89.56
2018-10-07T17:53:20.183Z,90.40
2018-10-07T17:55:50.028Z,90.30
2018-10-07T17:58:21.131Z,90.36
2018-10-07T18:00:50.852Z,89.65
2018-10-07T18:03:21.436Z,90.48
2018-10-07T18:05:51.123Z,89.77
2018-10-07T18:08:22.951Z,90.26
2018-10-07T18:10:52.749Z,90.03
2018-10-07T18:13:23.888Z,90.88
2018-10-07T18:15:53.693Z,89.98
2018-10-07T18:18:24.550Z,90.32
2018-10-07T18:20:54.710Z,90.59
2018-10-07T18:23:26.411Z,90.50
2018-10-07T18:25:56.482Z,90.06
2018-10-07T18:28:27.070Z,90.04
2018-10-07T18:30:57.130Z,90.39
2018-10-07T18:33:28.105Z,91.16
2018-10-07T18:35:58.250Z,90.69
2018-10-07T18:38:29.550Z,91.44
2018-10-07T18:40:59.851Z,90.88
2018-10-07T18:43:31.075Z,91.33
2018-10-07T18:46:01.223Z,91.32
2018-10-07T18:48:32.411Z,91.72
2018-10-07T18:51:02.310Z,91.58
2018-10-07T18:53:33.810Z,91.35
2018-10-07T18:56:03.875Z,91.22
2018-10-07T18:58:36.330Z,91.26
2018-10-07T19:01:06.302Z,91.30
2018-10-07T19:03:38.060Z,92.12
2018-10-07T19:06:09.057Z,92.16
2018-10-07T19:08:40.527Z,92.33
2018-10-07T19:11:10.829Z,91.82
2018-10-07T19:13:43.149Z,92.25
2018-10-07T19:16:13.242Z,91.96
2018-10-07T19:18:43.649Z,91.78
2018-10-07T19:21:14.232Z,92.38
2018-10-07T19:23:44.908Z,92.04
2018-10-07T19:26:15.322Z,92.08
2018-10-07T19:28:49.075Z,91.96
2018-10-07T19:31:18.928Z,92.05
2018-10-07T19:33:50.240Z,92.02
2018-10-07T19:36:21.368Z,92.03
2018-10-07T19:38:51.540Z,92.61
2018-10-07T19:41:21.575Z,92.00
2018-10-07T19:43:52.035Z,92.20
2018-10-07T19:46:22.329Z,92.55
2018-10-07T19:48:53.579Z,91.97
2018-10-07T19:51:23.669Z,92.02
2018-10-07T19:53:54.168Z,92.81
2018-10-07T19:56:24.642Z,91.99
2018-10-07T19:58:55.461Z,92.02
2018-10-07T20:01:46.407Z,92.07
2018-10-07T20:07:11.948Z,92.33
2018-10-07T20:09:41.930Z,92.26
2018-10-07T20:12:29.945Z,92.99
2018-10-07T20:15:00.325Z,92.26
2018-10-07T20:17:30.969Z,92.68
2018-10-07T20:20:00.855Z,92.03
2018-10-07T20:22:30.644Z,92.86
2018-10-07T20:25:00.806Z,93.00
2018-10-07T20:27:30.795Z,92.89
2018-10-07T20:30:01.848Z,92.11
2018-10-07T20:32:31.849Z,92.12
2018-10-07T20:35:02.616Z,92.98
2018-10-07T20:37:32.572Z,92.35
2018-10-07T20:40:02.505Z,92.00
2018-10-07T20:42:32.437Z,92.18
2018-10-07T20:45:03.115Z,92.09
2018-10-07T20:47:32.564Z,92.34
2018-10-07T20:50:02.078Z,92.10
2018-10-07T20:52:31.810Z,92.38
2018-10-07T20:55:01.870Z,92.29
2018-10-07T20:57:31.591Z,92.87
2018-10-07T21:00:01.546Z,92.84
2018-10-07T21:02:31.015Z,92.75
2018-10-07T21:05:00.552Z,92.72
2018-10-07T21:07:29.992Z,91.98
2018-10-07T21:09:59.516Z,92.06
2018-10-07T21:12:29.205Z,92.65
2018-10-07T21:14:58.664Z,93.03
2018-10-07T21:17:28.090Z,92.81
2018-10-07T21:19:57.686Z,92.44
2018-10-07T21:22:27.368Z,92.44
2018-10-07T21:24:56.788Z,92.25
2018-10-07T21:27:26.203Z,92.19
2018-10-07T21:29:55.919Z,92.81
2018-10-07T21:32:25.348Z,93.10
2018-10-07T21:34:54.789Z,92.46
2018-10-07T21:37:24.251Z,92.13
2018-10-07T21:39:53.713Z,93.05
2018-10-07T21:42:23.113Z,92.18
2018-10-07T21:44:52.549Z,92.36
2018-10-07T21:47:21.994Z,93.11
2018-10-07T21:49:51.510Z,92.66
2018-10-07T21:52:21.222Z,93.45
2018-10-07T21:54:50.667Z,92.46
2018-10-07T21:57:20.775Z,93.09
2018-10-07T21:59:50.509Z,92.31
2018-10-07T22:02:19.909Z,92.99
2018-10-07T22:04:49.433Z,93.05
2018-10-07T22:07:18.874Z,92.82
2018-10-07T22:09:48.550Z,92.23
2018-10-07T22:12:17.989Z,92.83
2018-10-07T22:14:47.432Z,92.90
2018-10-07T22:17:16.851Z,93.00
2018-10-07T22:19:46.622Z,92.33
2018-10-07T22:22:16.063Z,92.44
2018-10-07T22:24:45.542Z,93.29
2018-10-07T22:27:14.949Z,92.42
2018-10-07T22:29:44.412Z,92.72
2018-10-07T22:32:13.843Z,92.08
2018-10-07T22:34:43.276Z,92.00
2018-10-07T22:37:12.706Z,92.71
2018-10-07T22:39:43.466Z,91.87
2018-10-07T22:42:12.984Z,92.15
2018-10-07T22:44:43.390Z,91.45
2018-10-07T22:47:12.747Z,92.29
2018-10-07T22:49:43.526Z,91.55
2018-10-07T22:52:13.203Z,91.44
2018-10-07T22:54:43.176Z,91.34
2018-10-07T22:57:12.857Z,92.01
2018-10-07T22:59:42.474Z,92.06
2018-10-07T23:02:12.066Z,91.58
2018-10-07T23:04:41.667Z,91.63
2018-10-07T23:07:11.426Z,91.81
2018-10-07T23:09:40.935Z,92.33
2018-10-07T23:12:10.767Z,92.68
2018-10-07T23:14:40.391Z,92.12
2018-10-07T23:17:10.223Z,91.95
2018-10-07T23:19:39.770Z,92.27
2018-10-07T23:22:09.390Z,92.66
2018-10-07T23:24:38.776Z,92.85
2018-10-07T23:27:08.565Z,92.69
2018-10-07T23:29:38.008Z,92.28
2018-10-07T23:32:07.602Z,92.86
2018-10-07T23:34:37.192Z,92.18
2018-10-07T23:37:06.961Z,92.27
2018-10-07T23:39:36.408Z,92.76
2018-10-07T23:42:05.987Z,92.08
2018-10-07T23:44:35.392Z,93.09
2018-10-07T23:47:05.033Z,92.98
2018-10-07T23:49:34.469Z,92.46
2018-10-07T23:52:04.258Z,92.08
2018-10-07T23:54:33.694Z,92.46
2018-10-07T23:57:03.434Z,92.34
2018-10-07T23:59:32.914Z,92.38
